createdAt,value
2023-04-29T00:00:47.013Z,1009.54
2023-04-29T00:01:47.074Z,1009.51
2023-04-29T00:02:47.199Z,1009.55
2023-04-29T00:04:47.265Z,1009.50
2023-04-29T00:05:47.305Z,1009.54
2023-04-29T00:06:47.481Z,1009.54
2023-04-29T00:07:47.212Z,1009.55
2023-04-29T00:08:47.231Z,1009.57
2023-04-29T00:09:47.269Z,1009.51
2023-04-29T00:10:47.317Z,1009.52
2023-04-29T00:11:47.314Z,1009.53
2023-04-29T00:12:47.358Z,1009.54
2023-04-29T00:13:47.673Z,1009.54
2023-04-29T00:14:47.409Z,1009.60
2023-04-29T00:15:47.431Z,1009.56
2023-04-29T00:16:47.487Z,1009.61
2023-04-29T00:17:47.490Z,1009.60
2023-04-29T00:18:47.519Z,1009.60
2023-04-29T00:19:47.844Z,1009.63
2023-04-29T00:20:47.574Z,1009.64
2023-04-29T00:21:47.607Z,1009.62
2023-04-29T00:22:47.621Z,1009.59
2023-04-29T00:23:47.646Z,1009.65
2023-04-29T00:24:47.706Z,1009.66
2023-04-29T00:25:48.006Z,1009.64
2023-04-29T00:26:47.737Z,1009.66
2023-04-29T00:27:47.757Z,1009.69
2023-04-29T00:28:47.805Z,1009.72
2023-04-29T00:29:47.813Z,1009.71
2023-04-29T00:30:47.902Z,1009.71
2023-04-29T00:31:48.167Z,1009.70
2023-04-29T00:32:47.914Z,1009.68
2023-04-29T00:33:47.926Z,1009.69
2023-04-29T00:34:47.955Z,1009.67
2023-04-29T00:35:47.993Z,1009.68
2023-04-29T00:36:48.010Z,1009.73
2023-04-29T00:37:48.034Z,1009.75
2023-04-29T00:38:48.317Z,1009.75
2023-04-29T00:39:48.092Z,1009.77
2023-04-29T00:40:48.125Z,1009.79
2023-04-29T00:42:48.175Z,1009.79
2023-04-29T00:43:48.205Z,1009.80
2023-04-29T00:44:48.324Z,1009.80
2023-04-29T00:45:48.674Z,1009.83
2023-04-29T00:46:48.328Z,1009.80
2023-04-29T00:47:48.354Z,1009.83
2023-04-29T00:48:48.356Z,1009.84
2023-04-29T00:49:48.365Z,1009.85
2023-04-29T00:50:48.402Z,1009.82
2023-04-29T00:51:48.427Z,1009.86
2023-04-29T00:52:48.752Z,1009.87
2023-04-29T00:53:49.720Z,1009.85
2023-04-29T00:54:48.506Z,1009.87
2023-04-29T00:55:48.542Z,1009.89
2023-04-29T00:56:48.565Z,1009.85
2023-04-29T00:57:48.604Z,1009.87
2023-04-29T00:58:48.629Z,1009.91
2023-04-29T00:59:48.946Z,1009.88
2023-04-29T01:00:48.699Z,1009.92
2023-04-29T01:02:48.848Z,1010.00
2023-04-29T01:03:48.983Z,1009.98
2023-04-29T01:04:48.897Z,1010.01
2023-04-29T01:05:48.814Z,1009.98
2023-04-29T01:06:49.143Z,1010.01
2023-04-29T01:07:48.886Z,1010.00
2023-04-29T01:08:48.899Z,1010.00
2023-04-29T01:09:48.927Z,1010.00
2023-04-29T01:10:48.954Z,1010.04
2023-04-29T01:11:48.977Z,1010.04
2023-04-29T01:12:49.006Z,1010.09
2023-04-29T01:13:49.333Z,1010.10
2023-04-29T01:14:49.061Z,1010.06
2023-04-29T01:15:49.128Z,1010.07
2023-04-29T01:16:49.135Z,1010.07
2023-04-29T01:17:49.168Z,1010.09
2023-04-29T01:18:49.190Z,1010.13
2023-04-29T01:19:49.231Z,1010.12
2023-04-29T01:20:49.526Z,1010.12
2023-04-29T01:21:49.255Z,1010.11
2023-04-29T01:22:49.291Z,1010.13
2023-04-29T01:23:49.318Z,1010.10
2023-04-29T01:24:49.353Z,1010.12
2023-04-29T01:25:49.365Z,1010.20
2023-04-29T01:26:49.395Z,1010.17
2023-04-29T01:27:49.724Z,1010.15
2023-04-29T01:28:49.449Z,1010.15
2023-04-29T01:30:49.510Z,1010.20
2023-04-29T01:31:49.653Z,1010.16
2023-04-29T01:32:49.724Z,1010.18
2023-04-29T01:33:49.631Z,1010.19
2023-04-29T01:34:49.951Z,1010.18
2023-04-29T01:35:49.650Z,1010.21
2023-04-29T01:36:49.669Z,1010.23
2023-04-29T01:37:49.697Z,1010.28
2023-04-29T01:38:49.745Z,1010.32
2023-04-29T01:39:49.867Z,1010.27
2023-04-29T01:40:49.833Z,1010.30
2023-04-29T01:41:50.111Z,1010.28
2023-04-29T01:42:49.834Z,1010.29
2023-04-29T01:43:49.860Z,1010.28
2023-04-29T01:44:49.904Z,1010.29
2023-04-29T01:45:49.917Z,1010.28
2023-04-29T01:46:49.970Z,1010.28
2023-04-29T01:47:50.012Z,1010.26
2023-04-29T01:48:50.320Z,1010.29
2023-04-29T01:49:50.074Z,1010.30
2023-04-29T01:50:50.064Z,1010.32
2023-04-29T01:51:50.102Z,1010.35
2023-04-29T01:52:50.112Z,1010.38
2023-04-29T01:53:50.150Z,1010.34
2023-04-29T01:55:50.508Z,1010.36
2023-04-29T01:56:50.215Z,1010.37
2023-04-29T01:57:50.250Z,1010.36
2023-04-29T01:58:50.277Z,1010.39
2023-04-29T01:59:50.420Z,1010.35
2023-04-29T02:00:50.436Z,1010.36
2023-04-29T02:01:50.363Z,1010.37
2023-04-29T02:02:50.745Z,1010.34
2023-04-29T02:03:50.581Z,1010.35
2023-04-29T02:04:50.527Z,1010.32
2023-04-29T02:05:50.549Z,1010.35
2023-04-29T02:06:50.493Z,1010.34
2023-04-29T02:07:50.526Z,1010.36
2023-04-29T02:08:50.548Z,1010.34
2023-04-29T02:09:51.252Z,1010.37
2023-04-29T02:10:50.617Z,1010.41
2023-04-29T02:11:50.637Z,1010.39
2023-04-29T02:12:50.678Z,1010.38
2023-04-29T02:13:50.694Z,1010.41
2023-04-29T02:14:50.716Z,1010.40
2023-04-29T02:15:51.045Z,1010.40
2023-04-29T02:16:50.980Z,1010.36
2023-04-29T02:17:50.810Z,1010.46
2023-04-29T02:19:51.132Z,1010.43
2023-04-29T02:20:50.910Z,1010.39
2023-04-29T02:21:51.160Z,1010.43
2023-04-29T02:22:50.936Z,1010.40
2023-04-29T02:23:50.964Z,1010.48
2023-04-29T02:24:50.997Z,1010.45
2023-04-29T02:25:51.039Z,1010.44
2023-04-29T02:26:51.057Z,1010.48
2023-04-29T02:27:51.384Z,1010.51
2023-04-29T02:28:51.121Z,1010.50
2023-04-29T02:30:51.161Z,1010.52
2023-04-29T02:31:51.261Z,1010.53
2023-04-29T02:32:51.268Z,1010.55
2023-04-29T02:33:51.248Z,1010.57
2023-04-29T02:34:51.571Z,1010.54
2023-04-29T02:35:51.299Z,1010.51
2023-04-29T02:36:51.341Z,1010.52
2023-04-29T02:37:51.353Z,1010.52
2023-04-29T02:38:51.399Z,1010.53
2023-04-29T02:39:51.601Z,1010.57
2023-04-29T02:40:51.435Z,1010.57
2023-04-29T02:41:51.785Z,1010.54
2023-04-29T02:42:51.497Z,1010.57
2023-04-29T02:43:51.529Z,1010.59
2023-04-29T02:44:51.552Z,1010.62
2023-04-29T02:45:51.625Z,1010.63
2023-04-29T02:46:51.598Z,1010.69
2023-04-29T02:47:51.719Z,1010.65
2023-04-29T02:48:51.961Z,1010.67
2023-04-29T02:49:51.937Z,1010.67
2023-04-29T02:50:51.764Z,1010.71
2023-04-29T02:51:51.842Z,1010.70
2023-04-29T02:52:51.794Z,1010.73
2023-04-29T02:53:51.793Z,1010.69
2023-04-29T02:54:51.814Z,1010.72
2023-04-29T02:55:52.150Z,1010.73
2023-04-29T02:56:51.873Z,1010.73
2023-04-29T02:57:51.904Z,1010.75
2023-04-29T02:58:51.943Z,1010.74
2023-04-29T02:59:52.119Z,1010.73
2023-04-29T03:00:52.007Z,1010.72
2023-04-29T03:01:52.014Z,1010.75
2023-04-29T03:02:52.476Z,1010.76
2023-04-29T03:03:52.402Z,1010.77
2023-04-29T03:04:52.143Z,1010.78
2023-04-29T03:05:52.144Z,1010.82
2023-04-29T03:06:52.149Z,1010.83
2023-04-29T03:07:52.202Z,1010.82
2023-04-29T03:08:52.219Z,1010.83
2023-04-29T03:09:52.724Z,1010.77
2023-04-29T03:10:52.272Z,1010.87
2023-04-29T03:11:52.298Z,1010.87
2023-04-29T03:12:52.429Z,1010.90
2023-04-29T03:13:52.367Z,1010.88
2023-04-29T03:14:52.384Z,1010.94
2023-04-29T03:15:52.421Z,1010.91
2023-04-29T03:16:52.787Z,1010.94
2023-04-29T03:17:52.515Z,1010.95
2023-04-29T03:19:52.759Z,1010.97
2023-04-29T03:20:52.573Z,1011.01
2023-04-29T03:21:53.907Z,1010.96
2023-04-29T03:22:52.591Z,1011.00
2023-04-29T03:24:52.671Z,1010.99
2023-04-29T03:25:52.723Z,1011.01
2023-04-29T03:26:52.853Z,1011.02
2023-04-29T03:27:52.734Z,1010.99
2023-04-29T03:28:52.758Z,1011.04
2023-04-29T03:29:52.986Z,1011.04
2023-04-29T03:30:53.166Z,1011.03
2023-04-29T03:31:52.917Z,1011.06
2023-04-29T03:32:52.870Z,1011.00
2023-04-29T03:33:52.890Z,1011.01
2023-04-29T03:34:52.913Z,1011.01
2023-04-29T03:35:52.952Z,1011.00
2023-04-29T03:37:53.304Z,1011.02
2023-04-29T03:38:53.014Z,1011.04
2023-04-29T03:39:53.384Z,1011.01
2023-04-29T03:40:53.235Z,1011.00
2023-04-29T03:41:53.106Z,1010.98
2023-04-29T03:42:53.127Z,1011.02
2023-04-29T03:43:53.156Z,1011.02
2023-04-29T03:44:53.518Z,1011.04
2023-04-29T03:45:53.259Z,1011.03
2023-04-29T03:46:53.442Z,1011.05
2023-04-29T03:48:53.293Z,1011.09
2023-04-29T03:49:53.708Z,1011.05
2023-04-29T03:50:53.353Z,1011.04
2023-04-29T03:51:54.211Z,1011.07
2023-04-29T03:52:53.459Z,1011.10
2023-04-29T03:53:53.438Z,1011.07
2023-04-29T03:54:53.535Z,1011.12
2023-04-29T03:55:53.641Z,1011.10
2023-04-29T03:56:55.037Z,1011.12
2023-04-29T03:57:53.649Z,1011.14
2023-04-29T03:58:53.862Z,1011.15
2023-04-29T04:00:53.619Z,1011.20
2023-04-29T04:01:53.708Z,1011.14
2023-04-29T04:02:53.784Z,1011.22
2023-04-29T04:03:53.756Z,1011.17
2023-04-29T04:04:53.857Z,1011.21
2023-04-29T04:05:54.084Z,1011.21
2023-04-29T04:06:53.777Z,1011.26
2023-04-29T04:08:53.823Z,1011.27
2023-04-29T04:09:54.475Z,1011.26
2023-04-29T04:10:53.880Z,1011.25
2023-04-29T04:11:54.214Z,1011.26
2023-04-29T04:12:53.963Z,1011.27
2023-04-29T04:13:53.985Z,1011.31
2023-04-29T04:15:54.078Z,1011.26
2023-04-29T04:16:54.115Z,1011.35
2023-04-29T04:17:54.416Z,1011.32
2023-04-29T04:18:54.120Z,1011.33
2023-04-29T04:19:54.449Z,1011.34
2023-04-29T04:20:54.206Z,1011.39
2023-04-29T04:21:54.177Z,1011.42
2023-04-29T04:22:54.211Z,1011.42
2023-04-29T04:24:54.563Z,1011.45
2023-04-29T04:25:54.282Z,1011.42
2023-04-29T04:26:54.332Z,1011.44
2023-04-29T04:27:54.357Z,1011.45
2023-04-29T04:28:54.397Z,1011.46
2023-04-29T04:29:54.506Z,1011.51
2023-04-29T04:30:54.735Z,1011.52
2023-04-29T04:31:54.588Z,1011.45
2023-04-29T04:32:54.508Z,1011.48
2023-04-29T04:34:54.571Z,1011.52
2023-04-29T04:35:54.556Z,1011.52
2023-04-29T04:36:54.785Z,1011.55
2023-04-29T04:37:54.923Z,1011.56
2023-04-29T04:38:54.644Z,1011.58
2023-04-29T04:39:54.857Z,1011.63
2023-04-29T04:40:54.799Z,1011.62
2023-04-29T04:41:54.740Z,1011.66
2023-04-29T04:42:55.275Z,1011.68
2023-04-29T04:43:54.787Z,1011.66
2023-04-29T04:45:54.894Z,1011.73
2023-04-29T04:46:54.856Z,1011.75
2023-04-29T04:47:55.121Z,1011.72
2023-04-29T04:48:54.913Z,1011.74
2023-04-29T04:49:55.273Z,1011.71
2023-04-29T04:50:54.975Z,1011.77
2023-04-29T04:51:55.298Z,1011.75
2023-04-29T04:52:55.030Z,1011.75
2023-04-29T04:53:55.054Z,1011.77
2023-04-29T04:54:55.080Z,1011.82
2023-04-29T04:55:55.102Z,1011.79
2023-04-29T04:56:55.135Z,1011.85
2023-04-29T04:57:55.164Z,1011.83
2023-04-29T04:58:55.429Z,1011.86
2023-04-29T04:59:55.212Z,1011.88
2023-04-29T05:00:55.339Z,1011.87
2023-04-29T05:01:55.306Z,1011.91
2023-04-29T05:02:55.437Z,1011.93
2023-04-29T05:04:55.348Z,1011.96
2023-04-29T05:05:55.671Z,1011.98
2023-04-29T05:06:55.414Z,1011.99
2023-04-29T05:07:55.486Z,1012.01
2023-04-29T05:08:55.564Z,1012.03
2023-04-29T05:09:55.530Z,1012.07
2023-04-29T05:10:55.529Z,1012.06
2023-04-29T05:11:55.544Z,1012.07
2023-04-29T05:12:55.873Z,1012.09
2023-04-29T05:13:55.744Z,1012.08
2023-04-29T05:14:55.661Z,1012.07
2023-04-29T05:15:55.663Z,1012.13
2023-04-29T05:16:55.691Z,1012.09
2023-04-29T05:18:55.749Z,1012.14
2023-04-29T05:19:56.166Z,1012.17
2023-04-29T05:20:55.789Z,1012.15
2023-04-29T05:21:56.132Z,1012.20
2023-04-29T05:22:55.847Z,1012.19
2023-04-29T05:23:55.863Z,1012.20
2023-04-29T05:24:55.882Z,1012.18
2023-04-29T05:25:55.982Z,1012.22
2023-04-29T05:26:56.237Z,1012.19
2023-04-29T05:27:56.086Z,1012.20
2023-04-29T05:28:56.039Z,1012.22
2023-04-29T05:29:56.386Z,1012.21
2023-04-29T05:30:56.064Z,1012.23
2023-04-29T05:31:56.088Z,1012.23
2023-04-29T05:32:56.116Z,1012.25
2023-04-29T05:33:56.444Z,1012.24
2023-04-29T05:34:56.196Z,1012.25
2023-04-29T05:35:56.190Z,1012.31
2023-04-29T05:37:56.380Z,1012.30
2023-04-29T05:38:56.270Z,1012.28
2023-04-29T05:39:56.296Z,1012.30
2023-04-29T05:40:56.592Z,1012.33
2023-04-29T05:41:56.348Z,1012.36
2023-04-29T05:42:56.379Z,1012.36
2023-04-29T05:43:56.404Z,1012.39
2023-04-29T05:44:56.443Z,1012.40
2023-04-29T05:45:56.477Z,1012.38
2023-04-29T05:46:56.480Z,1012.42
2023-04-29T05:47:56.966Z,1012.40
2023-04-29T05:48:56.531Z,1012.44
2023-04-29T05:49:56.570Z,1012.44
2023-04-29T05:50:56.606Z,1012.48
2023-04-29T05:51:56.623Z,1012.47
2023-04-29T05:52:56.697Z,1012.49
2023-04-29T05:53:56.778Z,1012.52
2023-04-29T05:54:57.010Z,1012.50
2023-04-29T05:55:56.744Z,1012.55
2023-04-29T05:56:56.758Z,1012.56
2023-04-29T05:57:56.783Z,1012.53
2023-04-29T05:58:57.033Z,1012.59
2023-04-29T05:59:56.928Z,1012.57
2023-04-29T06:00:58.129Z,1012.61
2023-04-29T06:01:57.187Z,1012.60
2023-04-29T06:02:59.183Z,1012.61
2023-04-29T06:03:57.227Z,1012.62
2023-04-29T06:04:57.295Z,1012.63
2023-04-29T06:05:57.215Z,1012.69
2023-04-29T06:06:57.115Z,1012.70
2023-04-29T06:07:57.357Z,1012.71
2023-04-29T06:08:57.077Z,1012.73
2023-04-29T06:09:57.128Z,1012.70
2023-04-29T06:10:57.125Z,1012.76
2023-04-29T06:11:57.164Z,1012.75
2023-04-29T06:12:57.183Z,1012.82
2023-04-29T06:13:57.522Z,1012.78
2023-04-29T06:14:57.238Z,1012.81
2023-04-29T06:15:57.348Z,1012.86
2023-04-29T06:16:57.284Z,1012.86
2023-04-29T06:18:57.374Z,1012.88
2023-04-29T06:19:57.979Z,1012.90
2023-04-29T06:20:57.399Z,1012.93
2023-04-29T06:21:57.529Z,1012.94
2023-04-29T06:22:57.574Z,1012.95
2023-04-29T06:23:57.476Z,1012.95
2023-04-29T06:24:57.511Z,1012.97
2023-04-29T06:25:57.548Z,1013.01
2023-04-29T06:26:57.862Z,1012.97
2023-04-29T06:27:57.588Z,1013.00
2023-04-29T06:28:57.622Z,1013.05
2023-04-29T06:29:57.744Z,1013.09
2023-04-29T06:30:57.673Z,1013.03
2023-04-29T06:31:57.776Z,1013.11
2023-04-29T06:32:57.766Z,1013.09
2023-04-29T06:33:58.008Z,1013.15
2023-04-29T06:34:57.780Z,1013.13
2023-04-29T06:35:57.808Z,1013.11
2023-04-29T06:36:57.827Z,1013.13
2023-04-29T06:37:57.894Z,1013.14
2023-04-29T06:38:57.910Z,1013.19
2023-04-29T06:39:57.917Z,1013.16
2023-04-29T06:40:58.188Z,1013.15
2023-04-29T06:41:57.964Z,1013.19
2023-04-29T06:42:58.009Z,1013.23
2023-04-29T06:43:58.060Z,1013.24
2023-04-29T06:44:58.046Z,1013.20
2023-04-29T06:45:58.091Z,1013.25
2023-04-29T06:46:58.161Z,1013.23
2023-04-29T06:47:58.427Z,1013.26
2023-04-29T06:48:58.159Z,1013.25
2023-04-29T06:49:58.177Z,1013.25
2023-04-29T06:50:58.204Z,1013.25
2023-04-29T06:51:58.237Z,1013.31
2023-04-29T06:52:58.296Z,1013.31
2023-04-29T06:53:58.302Z,1013.35
2023-04-29T06:54:58.583Z,1013.33
2023-04-29T06:55:58.351Z,1013.37
2023-04-29T06:56:58.390Z,1013.35
2023-04-29T06:57:58.395Z,1013.37
2023-04-29T06:58:58.426Z,1013.39
2023-04-29T06:59:58.456Z,1013.39
2023-04-29T07:00:58.517Z,1013.40
2023-04-29T07:01:58.806Z,1013.38
2023-04-29T07:03:58.705Z,1013.45
2023-04-29T07:04:58.648Z,1013.43
2023-04-29T07:05:58.615Z,1013.43
2023-04-29T07:06:58.637Z,1013.44
2023-04-29T07:07:58.670Z,1013.46
2023-04-29T07:08:59.100Z,1013.46
2023-04-29T07:09:58.781Z,1013.49
2023-04-29T07:10:58.797Z,1013.49
2023-04-29T07:11:58.779Z,1013.54
2023-04-29T07:12:58.809Z,1013.56
2023-04-29T07:13:58.838Z,1013.54
2023-04-29T07:14:58.867Z,1013.62
2023-04-29T07:15:59.196Z,1013.62
2023-04-29T07:16:59.068Z,1013.62
2023-04-29T07:18:58.969Z,1013.64
2023-04-29T07:19:59.152Z,1013.67
2023-04-29T07:21:59.084Z,1013.66
2023-04-29T07:23:59.405Z,1013.71
2023-04-29T07:24:59.342Z,1013.76
2023-04-29T07:25:59.166Z,1013.69
2023-04-29T07:26:59.205Z,1013.72
2023-04-29T07:27:59.228Z,1013.70
2023-04-29T07:28:59.296Z,1013.75
2023-04-29T07:29:59.301Z,1013.78
2023-04-29T07:30:59.628Z,1013.83
2023-04-29T07:31:59.378Z,1013.82
2023-04-29T07:33:00.231Z,1013.82
2023-04-29T07:33:59.378Z,1013.89
2023-04-29T07:34:59.401Z,1013.89
2023-04-29T07:35:59.424Z,1013.88
2023-04-29T07:36:59.458Z,1013.90
2023-04-29T07:37:59.781Z,1013.92
2023-04-29T07:38:59.611Z,1013.91
2023-04-29T07:39:59.545Z,1013.94
2023-04-29T07:40:59.570Z,1013.96
2023-04-29T07:41:59.584Z,1013.93
2023-04-29T07:42:59.635Z,1013.91
2023-04-29T07:43:59.642Z,1013.96
2023-04-29T07:44:59.983Z,1013.98
2023-04-29T07:45:59.714Z,1013.95
2023-04-29T07:46:59.731Z,1013.95
2023-04-29T07:47:59.859Z,1013.89
2023-04-29T07:48:59.794Z,1013.87
2023-04-29T07:49:59.805Z,1013.93
2023-04-29T07:50:59.835Z,1013.95
2023-04-29T07:52:00.168Z,1013.96
2023-04-29T07:52:59.885Z,1013.96
2023-04-29T07:53:59.948Z,1014.00
2023-04-29T07:54:59.944Z,1013.94
2023-04-29T07:55:59.972Z,1013.98
2023-04-29T07:57:00.003Z,1013.99
2023-04-29T07:58:00.634Z,1014.02
2023-04-29T07:59:00.375Z,1014.04
2023-04-29T08:00:00.122Z,1014.02
2023-04-29T08:02:00.164Z,1014.02
2023-04-29T08:04:00.509Z,1014.06
2023-04-29T08:05:00.513Z,1014.06
2023-04-29T08:07:00.273Z,1014.13
2023-04-29T08:08:00.307Z,1014.17
2023-04-29T08:09:01.594Z,1014.16
2023-04-29T08:10:00.458Z,1014.21
2023-04-29T08:11:00.380Z,1014.19
2023-04-29T08:12:00.404Z,1014.18
2023-04-29T08:13:00.733Z,1014.20
2023-04-29T08:14:00.556Z,1014.17
2023-04-29T08:15:00.520Z,1014.24
2023-04-29T08:16:00.559Z,1014.24
2023-04-29T08:17:00.541Z,1014.26
2023-04-29T08:18:00.602Z,1014.26
2023-04-29T08:19:00.615Z,1014.28
2023-04-29T08:20:00.923Z,1014.29
2023-04-29T08:21:00.656Z,1014.27
2023-04-29T08:22:00.689Z,1014.28
2023-04-29T08:24:00.820Z,1014.32
2023-04-29T08:25:00.807Z,1014.33
2023-04-29T08:26:00.796Z,1014.35
2023-04-29T08:27:01.297Z,1014.33
2023-04-29T08:28:00.852Z,1014.37
2023-04-29T08:29:01.628Z,1014.41
2023-04-29T08:30:00.900Z,1014.39
2023-04-29T08:31:00.950Z,1014.45
2023-04-29T08:32:00.995Z,1014.45
2023-04-29T08:33:01.326Z,1014.46
2023-04-29T08:34:01.038Z,1014.50
2023-04-29T08:35:01.047Z,1014.48
2023-04-29T08:36:01.064Z,1014.47
2023-04-29T08:37:01.107Z,1014.50
2023-04-29T08:38:01.121Z,1014.49
2023-04-29T08:39:01.397Z,1014.46
2023-04-29T08:40:01.170Z,1014.56
2023-04-29T08:42:01.226Z,1014.55
2023-04-29T08:43:01.265Z,1014.56
2023-04-29T08:44:01.296Z,1014.60
2023-04-29T08:45:01.600Z,1014.59
2023-04-29T08:46:01.352Z,1014.64
2023-04-29T08:47:01.473Z,1014.62
2023-04-29T08:48:01.457Z,1014.59
2023-04-29T08:49:01.435Z,1014.62
2023-04-29T08:50:01.466Z,1014.66
2023-04-29T08:51:02.282Z,1014.68
2023-04-29T08:52:01.748Z,1014.69
2023-04-29T08:53:01.534Z,1014.69
2023-04-29T08:54:01.580Z,1014.71
2023-04-29T08:55:01.735Z,1014.74
2023-04-29T08:56:01.614Z,1014.69
2023-04-29T08:57:01.642Z,1014.73
2023-04-29T08:58:01.678Z,1014.77
2023-04-29T08:59:02.013Z,1014.77
2023-04-29T09:00:01.724Z,1014.75
2023-04-29T09:01:01.790Z,1014.74
2023-04-29T09:02:01.789Z,1014.74
2023-04-29T09:03:01.957Z,1014.81
2023-04-29T09:04:01.935Z,1014.83
2023-04-29T09:05:01.941Z,1014.82
2023-04-29T09:06:01.894Z,1014.80
2023-04-29T09:07:01.922Z,1014.80
2023-04-29T09:08:01.940Z,1014.73
2023-04-29T09:09:01.976Z,1014.80
2023-04-29T09:10:02.028Z,1014.85
2023-04-29T09:11:02.043Z,1014.78
2023-04-29T09:12:02.369Z,1014.81
2023-04-29T09:13:02.086Z,1014.84
2023-04-29T09:14:02.104Z,1014.81
2023-04-29T09:16:02.195Z,1014.75
2023-04-29T09:17:02.221Z,1014.76
2023-04-29T09:18:02.302Z,1014.80
2023-04-29T09:19:02.567Z,1014.75
2023-04-29T09:20:02.300Z,1014.74
2023-04-29T09:21:02.319Z,1014.82
2023-04-29T09:22:02.339Z,1014.78
2023-04-29T09:23:02.366Z,1014.81
2023-04-29T09:25:02.807Z,1014.82
2023-04-29T09:26:02.441Z,1014.82
2023-04-29T09:27:02.491Z,1014.79
2023-04-29T09:28:02.497Z,1014.86
2023-04-29T09:30:02.548Z,1014.89
2023-04-29T09:31:02.885Z,1014.92
2023-04-29T09:32:02.652Z,1014.89
2023-04-29T09:33:02.646Z,1014.88
2023-04-29T09:34:02.663Z,1014.92
2023-04-29T09:35:02.714Z,1014.94
2023-04-29T09:37:03.069Z,1014.92
2023-04-29T09:38:02.769Z,1014.92
2023-04-29T09:39:02.801Z,1014.92
2023-04-29T09:40:02.834Z,1014.93
2023-04-29T09:41:02.850Z,1014.94
2023-04-29T09:42:02.988Z,1014.90
2023-04-29T09:43:03.208Z,1014.95
2023-04-29T09:44:02.942Z,1014.92
2023-04-29T09:45:02.961Z,1014.97
2023-04-29T09:46:03.040Z,1014.97
2023-04-29T09:47:03.295Z,1015.00
2023-04-29T09:48:03.115Z,1014.99
2023-04-29T09:49:03.072Z,1015.03
2023-04-29T09:50:03.707Z,1015.06
2023-04-29T09:52:03.188Z,1015.05
2023-04-29T09:53:03.192Z,1015.09
2023-04-29T09:54:03.207Z,1015.12
2023-04-29T09:55:03.234Z,1015.12
2023-04-29T09:56:03.270Z,1015.10
2023-04-29T09:57:03.551Z,1015.10
2023-04-29T09:58:03.326Z,1015.12
2023-04-29T09:59:03.347Z,1015.10
2023-04-29T10:00:03.390Z,1015.14
2023-04-29T10:01:03.509Z,1015.17
2023-04-29T10:02:03.528Z,1015.14
2023-04-29T10:03:03.603Z,1015.21
2023-04-29T10:04:03.790Z,1015.20
2023-04-29T10:05:03.568Z,1015.19
2023-04-29T10:06:03.550Z,1015.19
2023-04-29T10:07:03.583Z,1015.23
2023-04-29T10:08:03.623Z,1015.14
2023-04-29T10:09:03.647Z,1015.23
2023-04-29T10:10:03.655Z,1015.23
2023-04-29T10:11:03.977Z,1015.25
2023-04-29T10:12:03.704Z,1015.25
2023-04-29T10:13:03.734Z,1015.22
2023-04-29T10:14:03.762Z,1015.23
2023-04-29T10:15:03.790Z,1015.26
2023-04-29T10:16:05.069Z,1015.29
2023-04-29T10:17:03.859Z,1015.28
2023-04-29T10:18:04.167Z,1015.29
2023-04-29T10:19:03.916Z,1015.30
2023-04-29T10:20:03.935Z,1015.31
2023-04-29T10:21:04.066Z,1015.29
2023-04-29T10:22:03.979Z,1015.32
2023-04-29T10:23:04.012Z,1015.34
2023-04-29T10:24:04.057Z,1015.33
2023-04-29T10:25:04.366Z,1015.32
2023-04-29T10:27:04.115Z,1015.33
2023-04-29T10:28:04.139Z,1015.31
2023-04-29T10:29:04.173Z,1015.32
2023-04-29T10:31:04.587Z,1015.31
2023-04-29T10:32:04.253Z,1015.32
2023-04-29T10:33:04.336Z,1015.36
2023-04-29T10:34:04.314Z,1015.37
2023-04-29T10:35:04.335Z,1015.35
2023-04-29T10:36:04.366Z,1015.37
2023-04-29T10:37:04.393Z,1015.37
2023-04-29T10:38:04.728Z,1015.36
2023-04-29T10:39:04.461Z,1015.44
2023-04-29T10:40:04.492Z,1015.43
2023-04-29T10:41:04.499Z,1015.41
2023-04-29T10:42:04.534Z,1015.50
2023-04-29T10:43:04.598Z,1015.46
2023-04-29T10:44:04.809Z,1015.50
2023-04-29T10:46:04.669Z,1015.49
2023-04-29T10:47:04.734Z,1015.46
2023-04-29T10:50:04.760Z,1015.48
2023-04-29T10:51:04.776Z,1015.50
2023-04-29T10:52:05.103Z,1015.47
2023-04-29T10:53:04.945Z,1015.42
2023-04-29T10:54:05.568Z,1015.50
2023-04-29T10:56:04.938Z,1015.49
2023-04-29T10:57:04.939Z,1015.52
2023-04-29T10:58:05.274Z,1015.53
2023-04-29T10:59:04.995Z,1015.53
2023-04-29T11:00:05.035Z,1015.58
2023-04-29T11:01:05.167Z,1015.61
2023-04-29T11:02:05.083Z,1015.60
2023-04-29T11:03:05.220Z,1015.58
2023-04-29T11:04:05.549Z,1015.59
2023-04-29T11:05:05.161Z,1015.64
2023-04-29T11:06:05.300Z,1015.63
2023-04-29T11:08:05.257Z,1015.66
2023-04-29T11:09:05.294Z,1015.68
2023-04-29T11:10:05.602Z,1015.66
2023-04-29T11:11:05.348Z,1015.67
2023-04-29T11:12:05.511Z,1015.66
2023-04-29T11:13:05.395Z,1015.71
2023-04-29T11:14:05.409Z,1015.71
2023-04-29T11:15:05.483Z,1015.67
2023-04-29T11:16:05.543Z,1015.68
2023-04-29T11:17:05.806Z,1015.68
2023-04-29T11:18:05.592Z,1015.64
2023-04-29T11:19:05.599Z,1015.63
2023-04-29T11:20:05.596Z,1015.63
2023-04-29T11:21:05.613Z,1015.57
2023-04-29T11:22:05.647Z,1015.59
2023-04-29T11:23:05.675Z,1015.63
2023-04-29T11:24:06.027Z,1015.61
2023-04-29T11:25:05.723Z,1015.63
2023-04-29T11:26:05.752Z,1015.61
2023-04-29T11:27:05.779Z,1015.60
2023-04-29T11:28:05.819Z,1015.60
2023-04-29T11:29:05.852Z,1015.62
2023-04-29T11:30:05.864Z,1015.62
2023-04-29T11:31:05.920Z,1015.64
2023-04-29T11:32:06.034Z,1015.62
2023-04-29T11:33:06.071Z,1015.64
2023-04-29T11:34:06.068Z,1015.63
2023-04-29T11:35:06.007Z,1015.64
2023-04-29T11:36:06.022Z,1015.63
2023-04-29T11:37:06.361Z,1015.72
2023-04-29T11:38:06.096Z,1015.68
2023-04-29T11:39:06.420Z,1015.72
2023-04-29T11:40:06.152Z,1015.69
2023-04-29T11:41:06.170Z,1015.73
2023-04-29T11:43:06.216Z,1015.80
2023-04-29T11:45:06.299Z,1015.89
2023-04-29T11:46:06.362Z,1015.93
2023-04-29T11:47:06.330Z,1015.88
2023-04-29T11:48:06.485Z,1015.91
2023-04-29T11:49:06.402Z,1015.89
2023-04-29T11:50:06.637Z,1015.90
2023-04-29T11:51:06.694Z,1015.89
2023-04-29T11:52:06.468Z,1015.86
2023-04-29T11:53:06.545Z,1015.89
2023-04-29T11:54:08.229Z,1015.92
2023-04-29T11:55:06.578Z,1015.94
2023-04-29T11:56:06.576Z,1015.99
2023-04-29T11:57:06.607Z,1015.98
2023-04-29T11:58:06.899Z,1015.92
2023-04-29T11:59:06.663Z,1015.89
2023-04-29T12:00:09.128Z,1015.90
2023-04-29T12:01:06.777Z,1015.91
2023-04-29T12:03:06.958Z,1015.89
2023-04-29T12:04:06.974Z,1015.92
2023-04-29T12:05:07.560Z,1015.93
2023-04-29T12:06:08.436Z,1015.93
2023-04-29T12:08:06.941Z,1015.85
2023-04-29T12:09:07.054Z,1015.82
2023-04-29T12:10:06.978Z,1015.84
2023-04-29T12:11:07.018Z,1015.86
2023-04-29T12:12:08.123Z,1015.84
2023-04-29T12:13:08.980Z,1015.84
2023-04-29T12:14:07.103Z,1015.87
2023-04-29T12:15:07.136Z,1015.85
2023-04-29T12:16:07.186Z,1015.90
2023-04-29T12:17:07.190Z,1015.91
2023-04-29T12:18:07.240Z,1015.97
2023-04-29T12:19:07.529Z,1015.97
2023-04-29T12:20:07.251Z,1015.99
2023-04-29T12:21:07.303Z,1015.98
2023-04-29T12:23:07.360Z,1016.05
2023-04-29T12:24:07.383Z,1015.98
2023-04-29T12:25:07.843Z,1015.93
2023-04-29T12:26:07.423Z,1015.94
2023-04-29T12:27:07.454Z,1015.98
2023-04-29T12:28:08.602Z,1015.96
2023-04-29T12:29:07.529Z,1015.92
2023-04-29T12:30:07.538Z,1015.86
2023-04-29T12:31:07.980Z,1015.82
2023-04-29T12:32:07.602Z,1015.87
2023-04-29T12:33:07.723Z,1015.88
2023-04-29T12:34:09.836Z,1015.83
2023-04-29T12:35:07.688Z,1015.85
2023-04-29T12:36:07.717Z,1015.81
2023-04-29T12:37:08.038Z,1015.84
2023-04-29T12:38:07.767Z,1015.84
2023-04-29T12:39:07.797Z,1015.85
2023-04-29T12:40:07.827Z,1015.82
2023-04-29T12:41:07.857Z,1015.84
2023-04-29T12:42:07.882Z,1015.84
2023-04-29T12:43:07.902Z,1015.85
2023-04-29T12:44:08.229Z,1015.84
2023-04-29T12:45:08.104Z,1015.87
2023-04-29T12:47:08.045Z,1015.92
2023-04-29T12:48:12.355Z,1015.90
2023-04-29T12:49:08.096Z,1015.91
2023-04-29T12:50:08.106Z,1015.95
2023-04-29T12:51:08.436Z,1016.01
2023-04-29T12:52:08.166Z,1016.02
2023-04-29T12:53:08.207Z,1016.02
2023-04-29T12:54:08.229Z,1015.96